sensor_id;sensor_type;location;lat;lon;timestamp;P1;P2;P0
47081;PMS5003;33066;49.296;14.470;2022-07-05T00:02:19;14;11;
47081;PMS5003;33066;49.296;14.470;2022-07-05T00:04:45;11;11;
47081;PMS5003;33066;49.296;14.470;2022-07-05T00:07:10;13;10;
47081;PMS5003;33066;49.296;14.470;2022-07-05T00:09:35;11;11;
47081;PMS5003;33066;49.296;14.470;2022-07-05T00:12:01;12;12;
47081;PMS5003;33066;49.296;14.470;2022-07-05T00:14:27;10;10;
47081;PMS5003;33066;49.296;14.470;2022-07-05T00:16:52;11;10;
47081;PMS5003;33066;49.296;14.470;2022-07-05T00:19:18;11;11;
47081;PMS5003;33066;49.296;14.470;2022-07-05T00:21:44;11;11;
47081;PMS5003;33066;49.296;14.470;2022-07-05T00:24:09;14;11;
47081;PMS5003;33066;49.296;14.470;2022-07-05T00:26:35;15;12;
47081;PMS5003;33066;49.296;14.470;2022-07-05T00:29:01;12;11;
47081;PMS5003;33066;49.296;14.470;2022-07-05T00:31:26;17;16;
47081;PMS5003;33066;49.296;14.470;2022-07-05T00:33:53;10;9;
47081;PMS5003;33066;49.296;14.470;2022-07-05T00:36:18;12;12;
47081;PMS5003;33066;49.296;14.470;2022-07-05T00:38:45;9;9;
47081;PMS5003;33066;49.296;14.470;2022-07-05T00:41:09;13;10;
47081;PMS5003;33066;49.296;14.470;2022-07-05T00:43:35;11;11;
47081;PMS5003;33066;49.296;14.470;2022-07-05T00:46:01;8;8;
47081;PMS5003;33066;49.296;14.470;2022-07-05T00:48:27;9;9;
47081;PMS5003;33066;49.296;14.470;2022-07-05T00:50:53;9;9;
47081;PMS5003;33066;49.296;14.470;2022-07-05T00:53:20;11;11;
47081;PMS5003;33066;49.296;14.470;2022-07-05T00:55:44;10;10;
47081;PMS5003;33066;49.296;14.470;2022-07-05T00:58:11;10;10;
47081;PMS5003;33066;49.296;14.470;2022-07-05T01:00:36;10;10;
47081;PMS5003;33066;49.296;14.470;2022-07-05T01:03:03;10;10;
47081;PMS5003;33066;49.296;14.470;2022-07-05T01:05:28;10;10;
47081;PMS5003;33066;49.296;14.470;2022-07-05T01:07:54;8;8;
47081;PMS5003;33066;49.296;14.470;2022-07-05T01:10:20;16;14;
47081;PMS5003;33066;49.296;14.470;2022-07-05T01:12:45;13;12;
47081;PMS5003;33066;49.296;14.470;2022-07-05T01:15:12;11;11;
47081;PMS5003;33066;49.296;14.470;2022-07-05T01:17:36;10;10;
47081;PMS5003;33066;49.296;14.470;2022-07-05T01:20:03;10;10;
47081;PMS5003;33066;49.296;14.470;2022-07-05T01:24:54;11;10;
47081;PMS5003;33066;49.296;14.470;2022-07-05T01:27:19;12;12;
47081;PMS5003;33066;49.296;14.470;2022-07-05T01:29:45;9;9;
47081;PMS5003;33066;49.296;14.470;2022-07-05T01:32:11;9;9;
47081;PMS5003;33066;49.296;14.470;2022-07-05T01:34:37;12;11;
47081;PMS5003;33066;49.296;14.470;2022-07-05T01:37:03;9;8;
47081;PMS5003;33066;49.296;14.470;2022-07-05T01:39:28;13;9;
47081;PMS5003;33066;49.296;14.470;2022-07-05T01:41:53;17;16;
47081;PMS5003;33066;49.296;14.470;2022-07-05T01:44:19;10;9;
47081;PMS5003;33066;49.296;14.470;2022-07-05T01:46:45;8;8;
47081;PMS5003;33066;49.296;14.470;2022-07-05T01:49:12;10;10;
47081;PMS5003;33066;49.296;14.470;2022-07-05T01:51:39;11;10;
47081;PMS5003;33066;49.296;14.470;2022-07-05T01:54:03;10;9;
47081;PMS5003;33066;49.296;14.470;2022-07-05T01:56:28;12;12;
47081;PMS5003;33066;49.296;14.470;2022-07-05T01:58:53;9;9;
47081;PMS5003;33066;49.296;14.470;2022-07-05T02:03:46;11;9;
47081;PMS5003;33066;49.296;14.470;2022-07-05T02:06:10;9;9;
47081;PMS5003;33066;49.296;14.470;2022-07-05T02:08:36;7;7;
47081;PMS5003;33066;49.296;14.470;2022-07-05T02:11:02;10;10;
47081;PMS5003;33066;49.296;14.470;2022-07-05T02:13:27;11;11;
47081;PMS5003;33066;49.296;14.470;2022-07-05T02:15:53;10;10;
47081;PMS5003;33066;49.296;14.470;2022-07-05T02:18:20;13;11;
47081;PMS5003;33066;49.296;14.470;2022-07-05T02:20:44;12;11;
47081;PMS5003;33066;49.296;14.470;2022-07-05T02:23:10;15;14;
47081;PMS5003;33066;49.296;14.470;2022-07-05T02:25:36;14;14;
47081;PMS5003;33066;49.296;14.470;2022-07-05T02:28:02;11;11;
47081;PMS5003;33066;49.296;14.470;2022-07-05T02:30:27;9;9;
47081;PMS5003;33066;49.296;14.470;2022-07-05T02:32:53;12;10;
47081;PMS5003;33066;49.296;14.470;2022-07-05T02:35:18;9;9;
47081;PMS5003;33066;49.296;14.470;2022-07-05T02:37:44;11;11;
47081;PMS5003;33066;49.296;14.470;2022-07-05T02:40:12;11;11;
47081;PMS5003;33066;49.296;14.470;2022-07-05T02:42:36;15;12;
47081;PMS5003;33066;49.296;14.470;2022-07-05T02:45:02;13;10;
47081;PMS5003;33066;49.296;14.470;2022-07-05T02:47:29;12;12;
47081;PMS5003;33066;49.296;14.470;2022-07-05T02:49:53;15;15;
47081;PMS5003;33066;49.296;14.470;2022-07-05T02:52:20;11;11;
47081;PMS5003;33066;49.296;14.470;2022-07-05T02:54:44;12;12;
47081;PMS5003;33066;49.296;14.470;2022-07-05T02:57:10;11;11;
47081;PMS5003;33066;49.296;14.470;2022-07-05T02:59:36;13;12;
47081;PMS5003;33066;49.296;14.470;2022-07-05T03:02:03;11;11;
47081;PMS5003;33066;49.296;14.470;2022-07-05T03:04:27;13;13;
47081;PMS5003;33066;49.296;14.470;2022-07-05T03:06:53;11;11;
47081;PMS5003;33066;49.296;14.470;2022-07-05T03:09:18;13;11;
47081;PMS5003;33066;49.296;14.470;2022-07-05T03:13:00;15;15;
47081;PMS5003;33066;49.296;14.470;2022-07-05T03:15:26;14;14;
47081;PMS5003;33066;49.296;14.470;2022-07-05T03:17:51;13;13;
47081;PMS5003;33066;49.296;14.470;2022-07-05T03:20:16;16;16;
47081;PMS5003;33066;49.296;14.470;2022-07-05T03:22:42;15;15;
47081;PMS5003;33066;49.296;14.470;2022-07-05T03:25:08;21;19;
47081;PMS5003;33066;49.296;14.470;2022-07-05T03:27:33;16;14;
47081;PMS5003;33066;49.296;14.470;2022-07-05T03:29:58;18;16;
47081;PMS5003;33066;49.296;14.470;2022-07-05T03:32:24;15;15;
47081;PMS5003;33066;49.296;14.470;2022-07-05T03:34:49;14;14;
47081;PMS5003;33066;49.296;14.470;2022-07-05T03:37:14;18;17;
47081;PMS5003;33066;49.296;14.470;2022-07-05T03:39:39;16;15;
47081;PMS5003;33066;49.296;14.470;2022-07-05T03:42:06;18;18;
47081;PMS5003;33066;49.296;14.470;2022-07-05T03:44:30;16;16;
47081;PMS5003;33066;49.296;14.470;2022-07-05T03:46:56;11;11;
47081;PMS5003;33066;49.296;14.470;2022-07-05T03:49:21;21;20;
47081;PMS5003;33066;49.296;14.470;2022-07-05T03:51:46;13;13;
47081;PMS5003;33066;49.296;14.470;2022-07-05T03:54:12;14;14;
47081;PMS5003;33066;49.296;14.470;2022-07-05T03:56:37;16;16;
47081;PMS5003;33066;49.296;14.470;2022-07-05T03:59:02;23;20;
47081;PMS5003;33066;49.296;14.470;2022-07-05T04:01:27;23;23;
47081;PMS5003;33066;49.296;14.470;2022-07-05T04:03:52;15;15;
47081;PMS5003;33066;49.296;14.470;2022-07-05T04:06:17;24;21;
47081;PMS5003;33066;49.296;14.470;2022-07-05T04:08:43;16;16;
47081;PMS5003;33066;49.296;14.470;2022-07-05T04:11:09;16;16;
47081;PMS5003;33066;49.296;14.470;2022-07-05T04:13:34;20;19;
47081;PMS5003;33066;49.296;14.470;2022-07-05T04:16:00;15;15;
47081;PMS5003;33066;49.296;14.470;2022-07-05T04:18:25;19;19;
47081;PMS5003;33066;49.296;14.470;2022-07-05T04:20:52;19;18;
47081;PMS5003;33066;49.296;14.470;2022-07-05T04:23:16;27;24;
47081;PMS5003;33066;49.296;14.470;2022-07-05T04:25:41;19;17;
47081;PMS5003;33066;49.296;14.470;2022-07-05T04:28:06;21;21;
47081;PMS5003;33066;49.296;14.470;2022-07-05T04:30:33;19;18;
47081;PMS5003;33066;49.296;14.470;2022-07-05T04:32:57;14;14;
47081;PMS5003;33066;49.296;14.470;2022-07-05T04:35:22;16;16;
47081;PMS5003;33066;49.296;14.470;2022-07-05T04:37:48;16;14;
47081;PMS5003;33066;49.296;14.470;2022-07-05T04:40:15;16;16;
47081;PMS5003;33066;49.296;14.470;2022-07-05T04:42:38;20;18;
47081;PMS5003;33066;49.296;14.470;2022-07-05T04:45:05;18;17;
47081;PMS5003;33066;49.296;14.470;2022-07-05T04:47:29;15;14;
47081;PMS5003;33066;49.296;14.470;2022-07-05T04:49:55;17;17;
47081;PMS5003;33066;49.296;14.470;2022-07-05T04:52:20;18;16;
47081;PMS5003;33066;49.296;14.470;2022-07-05T04:54:46;17;15;
47081;PMS5003;33066;49.296;14.470;2022-07-05T04:57:10;17;17;
47081;PMS5003;33066;49.296;14.470;2022-07-05T04:59:36;15;15;
47081;PMS5003;33066;49.296;14.470;2022-07-05T05:02:00;17;16;
47081;PMS5003;33066;49.296;14.470;2022-07-05T05:04:26;15;15;
47081;PMS5003;33066;49.296;14.470;2022-07-05T05:06:50;16;16;
47081;PMS5003;33066;49.296;14.470;2022-07-05T05:09:15;17;17;
47081;PMS5003;33066;49.296;14.470;2022-07-05T05:11:41;17;17;
47081;PMS5003;33066;49.296;14.470;2022-07-05T05:14:06;14;14;
47081;PMS5003;33066;49.296;14.470;2022-07-05T05:16:32;17;17;
47081;PMS5003;33066;49.296;14.470;2022-07-05T05:18:57;23;22;
47081;PMS5003;33066;49.296;14.470;2022-07-05T05:21:22;17;17;
47081;PMS5003;33066;49.296;14.470;2022-07-05T05:23:47;20;20;
47081;PMS5003;33066;49.296;14.470;2022-07-05T05:26:12;18;14;
47081;PMS5003;33066;49.296;14.470;2022-07-05T05:28:38;20;19;
47081;PMS5003;33066;49.296;14.470;2022-07-05T05:31:04;14;14;
47081;PMS5003;33066;49.296;14.470;2022-07-05T05:33:29;20;19;
47081;PMS5003;33066;49.296;14.470;2022-07-05T05:35:54;21;21;
47081;PMS5003;33066;49.296;14.470;2022-07-05T05:38:19;19;17;
47081;PMS5003;33066;49.296;14.470;2022-07-05T05:40:46;29;27;
47081;PMS5003;33066;49.296;14.470;2022-07-05T05:43:10;28;27;
47081;PMS5003;33066;49.296;14.470;2022-07-05T05:45:36;22;22;
47081;PMS5003;33066;49.296;14.470;2022-07-05T05:48:01;26;22;
47081;PMS5003;33066;49.296;14.470;2022-07-05T05:50:28;15;14;
47081;PMS5003;33066;49.296;14.470;2022-07-05T05:52:52;18;17;
47081;PMS5003;33066;49.296;14.470;2022-07-05T05:55:17;18;18;
47081;PMS5003;33066;49.296;14.470;2022-07-05T05:57:42;20;15;
47081;PMS5003;33066;49.296;14.470;2022-07-05T06:00:08;16;16;
47081;PMS5003;33066;49.296;14.470;2022-07-05T06:02:33;23;22;
47081;PMS5003;33066;49.296;14.470;2022-07-05T06:04:58;15;15;
47081;PMS5003;33066;49.296;14.470;2022-07-05T06:07:23;34;33;
47081;PMS5003;33066;49.296;14.470;2022-07-05T06:09:48;18;18;
47081;PMS5003;33066;49.296;14.470;2022-07-05T06:12:14;22;22;
47081;PMS5003;33066;49.296;14.470;2022-07-05T06:14:40;22;22;
47081;PMS5003;33066;49.296;14.470;2022-07-05T06:17:05;23;22;
47081;PMS5003;33066;49.296;14.470;2022-07-05T06:19:30;20;19;
47081;PMS5003;33066;49.296;14.470;2022-07-05T06:21:56;22;20;
47081;PMS5003;33066;49.296;14.470;2022-07-05T06:24:21;25;23;
47081;PMS5003;33066;49.296;14.470;2022-07-05T06:26:47;20;17;
47081;PMS5003;33066;49.296;14.470;2022-07-05T06:29:12;18;16;
47081;PMS5003;33066;49.296;14.470;2022-07-05T06:31:38;19;19;
47081;PMS5003;33066;49.296;14.470;2022-07-05T06:34:04;21;20;
47081;PMS5003;33066;49.296;14.470;2022-07-05T06:36:28;17;17;
47081;PMS5003;33066;49.296;14.470;2022-07-05T06:38:54;20;20;
47081;PMS5003;33066;49.296;14.470;2022-07-05T06:41:19;19;19;
47081;PMS5003;33066;49.296;14.470;2022-07-05T06:43:45;18;17;
47081;PMS5003;33066;49.296;14.470;2022-07-05T06:46:10;18;18;
47081;PMS5003;33066;49.296;14.470;2022-07-05T06:48:35;25;22;
47081;PMS5003;33066;49.296;14.470;2022-07-05T06:51:00;18;18;
47081;PMS5003;33066;49.296;14.470;2022-07-05T06:53:25;19;17;
47081;PMS5003;33066;49.296;14.470;2022-07-05T06:55:51;18;18;
47081;PMS5003;33066;49.296;14.470;2022-07-05T06:58:16;25;23;
47081;PMS5003;33066;49.296;14.470;2022-07-05T07:00:42;19;19;
47081;PMS5003;33066;49.296;14.470;2022-07-05T07:03:07;21;21;
47081;PMS5003;33066;49.296;14.470;2022-07-05T07:05:33;18;16;
47081;PMS5003;33066;49.296;14.470;2022-07-05T07:07:58;19;19;
47081;PMS5003;33066;49.296;14.470;2022-07-05T07:10:24;16;15;
47081;PMS5003;33066;49.296;14.470;2022-07-05T07:12:49;15;14;
47081;PMS5003;33066;49.296;14.470;2022-07-05T07:15:14;14;14;
47081;PMS5003;33066;49.296;14.470;2022-07-05T07:17:39;17;17;
47081;PMS5003;33066;49.296;14.470;2022-07-05T07:20:05;22;20;
47081;PMS5003;33066;49.296;14.470;2022-07-05T07:22:32;19;18;
47081;PMS5003;33066;49.296;14.470;2022-07-05T07:24:55;17;17;
47081;PMS5003;33066;49.296;14.470;2022-07-05T07:27:21;24;22;
47081;PMS5003;33066;49.296;14.470;2022-07-05T07:29:47;18;18;
47081;PMS5003;33066;49.296;14.470;2022-07-05T07:32:14;22;21;
47081;PMS5003;33066;49.296;14.470;2022-07-05T07:34:38;16;14;
47081;PMS5003;33066;49.296;14.470;2022-07-05T07:37:04;20;17;
47081;PMS5003;33066;49.296;14.470;2022-07-05T07:39:29;17;16;
47081;PMS5003;33066;49.296;14.470;2022-07-05T07:41:55;16;16;
47081;PMS5003;33066;49.296;14.470;2022-07-05T07:44:20;23;22;
47081;PMS5003;33066;49.296;14.470;2022-07-05T07:46:46;16;16;
47081;PMS5003;33066;49.296;14.470;2022-07-05T07:49:12;14;14;
47081;PMS5003;33066;49.296;14.470;2022-07-05T07:51:37;17;17;
47081;PMS5003;33066;49.296;14.470;2022-07-05T07:54:02;19;18;
47081;PMS5003;33066;49.296;14.470;2022-07-05T07:56:27;20;15;
47081;PMS5003;33066;49.296;14.470;2022-07-05T07:58:53;14;14;
47081;PMS5003;33066;49.296;14.470;2022-07-05T08:01:19;19;17;
47081;PMS5003;33066;49.296;14.470;2022-07-05T08:03:44;20;19;
47081;PMS5003;33066;49.296;14.470;2022-07-05T08:06:11;20;17;
47081;PMS5003;33066;49.296;14.470;2022-07-05T08:08:35;16;16;
47081;PMS5003;33066;49.296;14.470;2022-07-05T08:11:01;15;14;
47081;PMS5003;33066;49.296;14.470;2022-07-05T08:13:26;19;18;
47081;PMS5003;33066;49.296;14.470;2022-07-05T08:15:52;16;15;
47081;PMS5003;33066;49.296;14.470;2022-07-05T08:18:18;17;17;
47081;PMS5003;33066;49.296;14.470;2022-07-05T08:20:43;18;17;
47081;PMS5003;33066;49.296;14.470;2022-07-05T08:23:09;18;18;
47081;PMS5003;33066;49.296;14.470;2022-07-05T08:25:36;16;16;
47081;PMS5003;33066;49.296;14.470;2022-07-05T08:28:00;16;15;
47081;PMS5003;33066;49.296;14.470;2022-07-05T08:30:26;15;14;
47081;PMS5003;33066;49.296;14.470;2022-07-05T08:32:52;13;13;
47081;PMS5003;33066;49.296;14.470;2022-07-05T08:35:17;17;16;
47081;PMS5003;33066;49.296;14.470;2022-07-05T08:37:42;17;16;
47081;PMS5003;33066;49.296;14.470;2022-07-05T08:40:08;17;16;
47081;PMS5003;33066;49.296;14.470;2022-07-05T08:42:35;20;18;
47081;PMS5003;33066;49.296;14.470;2022-07-05T08:45:00;15;14;
47081;PMS5003;33066;49.296;14.470;2022-07-05T08:47:24;19;17;
47081;PMS5003;33066;49.296;14.470;2022-07-05T08:49:50;38;32;
47081;PMS5003;33066;49.296;14.470;2022-07-05T08:52:15;22;21;
47081;PMS5003;33066;49.296;14.470;2022-07-05T08:54:41;19;16;
47081;PMS5003;33066;49.296;14.470;2022-07-05T08:57:06;17;17;
47081;PMS5003;33066;49.296;14.470;2022-07-05T08:59:32;20;17;
47081;PMS5003;33066;49.296;14.470;2022-07-05T09:01:57;20;20;
47081;PMS5003;33066;49.296;14.470;2022-07-05T09:04:22;18;17;
47081;PMS5003;33066;49.296;14.470;2022-07-05T09:06:48;18;18;
47081;PMS5003;33066;49.296;14.470;2022-07-05T09:09:14;16;16;
47081;PMS5003;33066;49.296;14.470;2022-07-05T09:11:41;18;16;
47081;PMS5003;33066;49.296;14.470;2022-07-05T09:14:07;16;14;
47081;PMS5003;33066;49.296;14.470;2022-07-05T09:16:32;19;19;
47081;PMS5003;33066;49.296;14.470;2022-07-05T09:18:56;23;22;
47081;PMS5003;33066;49.296;14.470;2022-07-05T09:21:22;14;14;
47081;PMS5003;33066;49.296;14.470;2022-07-05T09:26:13;13;13;
47081;PMS5003;33066;49.296;14.470;2022-07-05T09:31:05;16;15;
47081;PMS5003;33066;49.296;14.470;2022-07-05T09:33:30;14;13;
47081;PMS5003;33066;49.296;14.470;2022-07-05T09:35:55;18;16;
47081;PMS5003;33066;49.296;14.470;2022-07-05T09:38:23;17;16;
47081;PMS5003;33066;49.296;14.470;2022-07-05T09:40:47;12;12;
47081;PMS5003;33066;49.296;14.470;2022-07-05T09:43:13;18;16;
47081;PMS5003;33066;49.296;14.470;2022-07-05T09:45:38;15;15;
47081;PMS5003;33066;49.296;14.470;2022-07-05T09:48:04;18;18;
47081;PMS5003;33066;49.296;14.470;2022-07-05T09:50:33;15;13;
47081;PMS5003;33066;49.296;14.470;2022-07-05T09:52:55;12;12;
47081;PMS5003;33066;49.296;14.470;2022-07-05T09:55:20;13;13;
47081;PMS5003;33066;49.296;14.470;2022-07-05T09:57:46;13;13;
47081;PMS5003;33066;49.296;14.470;2022-07-05T10:00:13;10;9;
47081;PMS5003;33066;49.296;14.470;2022-07-05T10:02:38;16;16;
47081;PMS5003;33066;49.296;14.470;2022-07-05T10:05:07;19;18;
47081;PMS5003;33066;49.296;14.470;2022-07-05T10:07:30;15;14;
47081;PMS5003;33066;49.296;14.470;2022-07-05T10:09:54;14;14;
47081;PMS5003;33066;49.296;14.470;2022-07-05T10:12:20;13;13;
47081;PMS5003;33066;49.296;14.470;2022-07-05T10:14:45;15;14;
47081;PMS5003;33066;49.296;14.470;2022-07-05T10:17:11;14;14;
47081;PMS5003;33066;49.296;14.470;2022-07-05T10:19:38;13;13;
47081;PMS5003;33066;49.296;14.470;2022-07-05T10:22:03;15;13;
47081;PMS5003;33066;49.296;14.470;2022-07-05T10:24:32;14;13;
47081;PMS5003;33066;49.296;14.470;2022-07-05T10:26:54;15;15;
47081;PMS5003;33066;49.296;14.470;2022-07-05T10:29:19;14;14;
47081;PMS5003;33066;49.296;14.470;2022-07-05T10:31:45;16;12;
47081;PMS5003;33066;49.296;14.470;2022-07-05T10:34:13;17;16;
47081;PMS5003;33066;49.296;14.470;2022-07-05T10:36:36;15;14;
47081;PMS5003;33066;49.296;14.470;2022-07-05T10:39:02;11;11;
47081;PMS5003;33066;49.296;14.470;2022-07-05T10:41:28;15;15;
47081;PMS5003;33066;49.296;14.470;2022-07-05T10:43:53;15;14;
47081;PMS5003;33066;49.296;14.470;2022-07-05T10:46:19;14;14;
47081;PMS5003;33066;49.296;14.470;2022-07-05T10:48:44;15;14;
47081;PMS5003;33066;49.296;14.470;2022-07-05T10:51:14;16;13;
47081;PMS5003;33066;49.296;14.470;2022-07-05T10:56:10;15;13;
47081;PMS5003;33066;49.296;14.470;2022-07-05T10:58:28;15;11;
47081;PMS5003;33066;49.296;14.470;2022-07-05T11:05:43;16;14;
47081;PMS5003;33066;49.296;14.470;2022-07-05T11:08:09;14;14;
47081;PMS5003;33066;49.296;14.470;2022-07-05T11:10:34;14;14;
47081;PMS5003;33066;49.296;14.470;2022-07-05T11:12:59;13;13;
47081;PMS5003;33066;49.296;14.470;2022-07-05T11:15:25;13;13;
47081;PMS5003;33066;49.296;14.470;2022-07-05T11:17:52;14;14;
47081;PMS5003;33066;49.296;14.470;2022-07-05T11:20:17;13;11;
47081;PMS5003;33066;49.296;14.470;2022-07-05T11:25:09;14;13;
47081;PMS5003;33066;49.296;14.470;2022-07-05T11:27:33;12;12;
47081;PMS5003;33066;49.296;14.470;2022-07-05T11:29:59;10;10;
47081;PMS5003;33066;49.296;14.470;2022-07-05T11:34:51;13;13;
47081;PMS5003;33066;49.296;14.470;2022-07-05T11:37:17;9;9;
47081;PMS5003;33066;49.296;14.470;2022-07-05T11:39:42;10;10;
47081;PMS5003;33066;49.296;14.470;2022-07-05T11:42:07;12;12;
47081;PMS5003;33066;49.296;14.470;2022-07-05T11:44:33;11;11;
47081;PMS5003;33066;49.296;14.470;2022-07-05T11:46:58;9;9;
47081;PMS5003;33066;49.296;14.470;2022-07-05T11:49:24;13;13;
47081;PMS5003;33066;49.296;14.470;2022-07-05T11:51:53;10;10;
47081;PMS5003;33066;49.296;14.470;2022-07-05T11:54:22;12;12;
47081;PMS5003;33066;49.296;14.470;2022-07-05T11:56:42;10;10;
47081;PMS5003;33066;49.296;14.470;2022-07-05T12:03:57;10;10;
47081;PMS5003;33066;49.296;14.470;2022-07-05T12:06:23;8;8;
47081;PMS5003;33066;49.296;14.470;2022-07-05T12:11:14;9;9;
47081;PMS5003;33066;49.296;14.470;2022-07-05T12:13:44;11;9;
47081;PMS5003;33066;49.296;14.470;2022-07-05T12:16:06;14;14;
47081;PMS5003;33066;49.296;14.470;2022-07-05T12:18:31;14;14;
47081;PMS5003;33066;49.296;14.470;2022-07-05T12:20:58;10;10;
47081;PMS5003;33066;49.296;14.470;2022-07-05T12:23:26;10;9;
47081;PMS5003;33066;49.296;14.470;2022-07-05T12:25:47;10;10;
47081;PMS5003;33066;49.296;14.470;2022-07-05T12:28:13;9;9;
47081;PMS5003;33066;49.296;14.470;2022-07-05T12:30:39;12;12;
47081;PMS5003;33066;49.296;14.470;2022-07-05T12:33:06;13;13;
47081;PMS5003;33066;49.296;14.470;2022-07-05T12:35:29;9;9;
47081;PMS5003;33066;49.296;14.470;2022-07-05T12:37:55;9;9;
47081;PMS5003;33066;49.296;14.470;2022-07-05T12:40:21;8;8;
47081;PMS5003;33066;49.296;14.470;2022-07-05T12:42:46;9;9;
47081;PMS5003;33066;49.296;14.470;2022-07-05T12:45:14;7;7;
47081;PMS5003;33066;49.296;14.470;2022-07-05T12:50:03;10;10;
47081;PMS5003;33066;49.296;14.470;2022-07-05T12:52:28;7;7;
47081;PMS5003;33066;49.296;14.470;2022-07-05T12:57:20;9;9;
47081;PMS5003;33066;49.296;14.470;2022-07-05T13:02:11;7;7;
47081;PMS5003;33066;49.296;14.470;2022-07-05T13:04:37;8;7;
47081;PMS5003;33066;49.296;14.470;2022-07-05T13:07:02;8;8;
47081;PMS5003;33066;49.296;14.470;2022-07-05T13:09:31;7;6;
47081;PMS5003;33066;49.296;14.470;2022-07-05T13:14:19;7;7;
47081;PMS5003;33066;49.296;14.470;2022-07-05T13:16:45;9;9;
47081;PMS5003;33066;49.296;14.470;2022-07-05T13:19:10;10;10;
47081;PMS5003;33066;49.296;14.470;2022-07-05T13:21:36;8;8;
47081;PMS5003;33066;49.296;14.470;2022-07-05T13:24:03;7;7;
47081;PMS5003;33066;49.296;14.470;2022-07-05T13:26:27;10;10;
47081;PMS5003;33066;49.296;14.470;2022-07-05T13:28:52;7;7;
47081;PMS5003;33066;49.296;14.470;2022-07-05T13:31:18;7;7;
47081;PMS5003;33066;49.296;14.470;2022-07-05T13:33:45;6;6;
47081;PMS5003;33066;49.296;14.470;2022-07-05T13:36:09;10;9;
47081;PMS5003;33066;49.296;14.470;2022-07-05T13:38:35;7;7;
47081;PMS5003;33066;49.296;14.470;2022-07-05T13:41:01;9;8;
47081;PMS5003;33066;49.296;14.470;2022-07-05T13:43:26;8;8;
47081;PMS5003;33066;49.296;14.470;2022-07-05T13:45:52;10;10;
47081;PMS5003;33066;49.296;14.470;2022-07-05T13:48:18;9;8;
47081;PMS5003;33066;49.296;14.470;2022-07-05T13:50:43;11;10;
47081;PMS5003;33066;49.296;14.470;2022-07-05T13:53:09;8;8;
47081;PMS5003;33066;49.296;14.470;2022-07-05T13:55:34;7;7;
47081;PMS5003;33066;49.296;14.470;2022-07-05T13:58:00;7;7;
47081;PMS5003;33066;49.296;14.470;2022-07-05T14:00:26;8;8;
47081;PMS5003;33066;49.296;14.470;2022-07-05T14:02:52;7;6;
47081;PMS5003;33066;49.296;14.470;2022-07-05T14:05:17;9;9;
47081;PMS5003;33066;49.296;14.470;2022-07-05T14:07:43;10;10;
47081;PMS5003;33066;49.296;14.470;2022-07-05T14:10:09;10;10;
47081;PMS5003;33066;49.296;14.470;2022-07-05T14:12:34;8;8;
47081;PMS5003;33066;49.296;14.470;2022-07-05T14:15:00;9;9;
47081;PMS5003;33066;49.296;14.470;2022-07-05T14:17:25;8;8;
47081;PMS5003;33066;49.296;14.470;2022-07-05T14:19:51;10;10;
47081;PMS5003;33066;49.296;14.470;2022-07-05T14:22:17;8;8;
47081;PMS5003;33066;49.296;14.470;2022-07-05T14:24:42;10;10;
47081;PMS5003;33066;49.296;14.470;2022-07-05T14:27:08;9;7;
47081;PMS5003;33066;49.296;14.470;2022-07-05T14:29:34;8;8;
47081;PMS5003;33066;49.296;14.470;2022-07-05T14:31:59;9;9;
47081;PMS5003;33066;49.296;14.470;2022-07-05T14:34:25;8;8;
47081;PMS5003;33066;49.296;14.470;2022-07-05T14:36:51;9;9;
47081;PMS5003;33066;49.296;14.470;2022-07-05T14:39:16;9;9;
47081;PMS5003;33066;49.296;14.470;2022-07-05T14:41:42;10;8;
47081;PMS5003;33066;49.296;14.470;2022-07-05T14:44:08;7;7;
47081;PMS5003;33066;49.296;14.470;2022-07-05T14:46:33;8;8;
47081;PMS5003;33066;49.296;14.470;2022-07-05T14:49:00;10;8;
47081;PMS5003;33066;49.296;14.470;2022-07-05T14:51:25;10;9;
47081;PMS5003;33066;49.296;14.470;2022-07-05T14:53:50;7;7;
47081;PMS5003;33066;49.296;14.470;2022-07-05T14:56:17;8;8;
47081;PMS5003;33066;49.296;14.470;2022-07-05T14:58:42;8;7;
47081;PMS5003;33066;49.296;14.470;2022-07-05T15:01:07;7;7;
47081;PMS5003;33066;49.296;14.470;2022-07-05T15:03:33;9;9;
47081;PMS5003;33066;49.296;14.470;2022-07-05T15:06:00;8;8;
47081;PMS5003;33066;49.296;14.470;2022-07-05T15:08:25;8;8;
47081;PMS5003;33066;49.296;14.470;2022-07-05T15:10:50;8;8;
47081;PMS5003;33066;49.296;14.470;2022-07-05T15:13:16;7;7;
47081;PMS5003;33066;49.296;14.470;2022-07-05T15:15:41;8;7;
47081;PMS5003;33066;49.296;14.470;2022-07-05T15:18:07;7;7;
47081;PMS5003;33066;49.296;14.470;2022-07-05T15:20:33;7;6;
47081;PMS5003;33066;49.296;14.470;2022-07-05T15:22:58;8;8;
47081;PMS5003;33066;49.296;14.470;2022-07-05T15:25:24;6;6;
47081;PMS5003;33066;49.296;14.470;2022-07-05T15:27:50;5;5;
47081;PMS5003;33066;49.296;14.470;2022-07-05T15:30:15;6;6;
47081;PMS5003;33066;49.296;14.470;2022-07-05T15:32:42;7;7;
47081;PMS5003;33066;49.296;14.470;2022-07-05T15:35:07;8;8;
47081;PMS5003;33066;49.296;14.470;2022-07-05T15:37:34;11;10;
47081;PMS5003;33066;49.296;14.470;2022-07-05T15:39:58;10;10;
47081;PMS5003;33066;49.296;14.470;2022-07-05T15:42:24;8;8;
47081;PMS5003;33066;49.296;14.470;2022-07-05T15:44:49;7;7;
47081;PMS5003;33066;49.296;14.470;2022-07-05T15:47:15;9;9;
47081;PMS5003;33066;49.296;14.470;2022-07-05T15:49:41;9;9;
47081;PMS5003;33066;49.296;14.470;2022-07-05T15:52:07;8;7;
47081;PMS5003;33066;49.296;14.470;2022-07-05T15:54:32;8;8;
47081;PMS5003;33066;49.296;14.470;2022-07-05T15:56:57;8;8;
47081;PMS5003;33066;49.296;14.470;2022-07-05T15:59:23;7;7;
47081;PMS5003;33066;49.296;14.470;2022-07-05T16:01:48;7;7;
47081;PMS5003;33066;49.296;14.470;2022-07-05T16:04:14;7;7;
47081;PMS5003;33066;49.296;14.470;2022-07-05T16:06:40;6;6;
47081;PMS5003;33066;49.296;14.470;2022-07-05T16:09:05;6;6;
47081;PMS5003;33066;49.296;14.470;2022-07-05T16:11:31;10;10;
47081;PMS5003;33066;49.296;14.470;2022-07-05T16:13:57;10;9;
47081;PMS5003;33066;49.296;14.470;2022-07-05T16:16:22;8;8;
47081;PMS5003;33066;49.296;14.470;2022-07-05T16:18:50;6;6;
47081;PMS5003;33066;49.296;14.470;2022-07-05T16:21:14;8;8;
47081;PMS5003;33066;49.296;14.470;2022-07-05T16:23:41;10;9;
47081;PMS5003;33066;49.296;14.470;2022-07-05T16:26:05;10;8;
47081;PMS5003;33066;49.296;14.470;2022-07-05T16:28:31;10;10;
47081;PMS5003;33066;49.296;14.470;2022-07-05T16:30:57;8;8;
47081;PMS5003;33066;49.296;14.470;2022-07-05T16:33:22;8;8;
47081;PMS5003;33066;49.296;14.470;2022-07-05T16:35:48;10;10;
47081;PMS5003;33066;49.296;14.470;2022-07-05T16:38:15;9;9;